Time;durP1;ratioP1;P1;durP2;ratioP2;P2;SDS_P1;SDS_P2;PMS_P1;PMS_P2;Temp;Humidity;BMP_temperature;BMP_pressure;BME280_temperature;BME280_humidity;BME280_pressure;Samples;Min_cycle;Max_cycle;Signal;HPM_P1;HPM_P2
2022/06/19 00:00:12;;;;;;;13.23;4.40;;;;;;;23.78;50.06;97622.63;5034376;28;20646;-70
2022/06/19 00:02:40;;;;;;;14.13;3.80;;;;;;;23.72;49.96;97623.84;5034009;28;20292;-70
2022/06/19 00:05:08;;;;;;;11.85;3.80;;;;;;;23.71;50.27;97619.53;5034324;28;20296;-70
2022/06/19 00:07:35;;;;;;;10.30;3.90;;;;;;;23.69;50.17;97621.78;5034458;28;20293;-70
2022/06/19 00:10:02;;;;;;;11.10;4.00;;;;;;;23.58;49.63;97615.00;5034130;28;20780;-70
2022/06/19 00:12:29;;;;;;;13.20;4.40;;;;;;;23.49;50.09;97604.13;5034139;28;20218;-70
2022/06/19 00:14:55;;;;;;;11.98;4.22;;;;;;;23.45;50.92;97605.03;5034048;28;20206;-70
2022/06/19 00:17:22;;;;;;;13.10;4.35;;;;;;;23.41;51.13;97606.78;5033867;28;20643;-70
2022/06/19 00:19:49;;;;;;;10.63;4.35;;;;;;;23.31;51.79;97599.72;5033938;28;20415;-70
2022/06/19 00:22:15;;;;;;;13.30;4.43;;;;;;;23.30;51.93;97584.56;5034272;28;20206;-70
2022/06/19 00:24:42;;;;;;;15.48;4.90;;;;;;;23.27;52.31;97598.75;5034281;28;20253;-70
2022/06/19 00:27:08;;;;;;;10.30;4.22;;;;;;;23.21;52.02;97591.84;5034245;28;20292;-70
2022/06/19 00:29:35;;;;;;;11.65;4.35;;;;;;;23.21;53.02;97596.47;5034052;28;20320;-70
2022/06/19 00:32:04;;;;;;;14.77;4.65;;;;;;;23.15;53.03;97589.56;5034133;28;20237;-70
2022/06/19 00:34:32;;;;;;;13.63;5.50;;;;;;;23.09;53.27;97583.44;5034091;28;20211;-70
2022/06/19 00:37:01;;;;;;;13.63;4.97;;;;;;;22.99;54.54;97577.47;5034069;28;20213;-70
2022/06/19 00:39:28;;;;;;;13.52;4.68;;;;;;;22.97;53.99;97574.28;5033838;28;20277;-70
2022/06/19 00:41:55;;;;;;;12.32;4.45;;;;;;;22.90;54.36;97584.75;5034507;28;20205;-70
2022/06/19 00:44:21;;;;;;;13.05;4.88;;;;;;;22.77;54.59;97580.19;5033951;28;20206;-70
2022/06/19 00:46:50;;;;;;;9.90;4.15;;;;;;;22.78;54.54;97576.38;5033521;28;20214;-70
2022/06/19 00:49:38;;;;;;;12.23;4.15;;;;;;;22.75;55.10;97574.28;5033661;28;20233;-70
2022/06/19 00:52:05;;;;;;;12.75;4.88;;;;;;;22.81;54.11;97573.06;5033897;28;20277;-70
2022/06/19 00:55:02;;;;;;;14.57;5.50;;;;;;;22.72;55.11;97566.78;5033665;28;20293;-70
2022/06/19 00:57:33;;;;;;;11.32;5.18;;;;;;;22.76;54.59;97562.34;5032175;28;20221;-70
2022/06/19 01:00:09;;;;;;;18.20;5.70;;;;;;;22.69;54.84;97551.94;5033773;28;20190;-70
2022/06/19 01:02:37;;;;;;;13.45;5.00;;;;;;;22.63;55.68;97546.94;5033743;28;20189;-70
2022/06/19 01:05:04;;;;;;;13.60;5.28;;;;;;;22.56;55.39;97541.94;5033632;28;20213;-70
2022/06/19 01:07:31;;;;;;;18.90;6.30;;;;;;;22.57;55.74;97550.88;5033255;28;20672;-70
2022/06/19 01:09:57;;;;;;;13.48;4.85;;;;;;;22.64;55.48;97549.34;5033231;28;20761;-70
2022/06/19 01:12:26;;;;;;;15.13;5.18;;;;;;;22.65;56.32;97550.94;5033254;28;20301;-70
2022/06/19 01:15:00;;;;;;;15.52;5.13;;;;;;;22.62;56.05;97548.88;5033589;28;20210;-70
2022/06/19 01:17:28;;;;;;;19.08;5.53;;;;;;;22.56;56.37;97549.28;5033556;28;20190;-69
2022/06/19 01:19:54;;;;;;;11.27;5.18;;;;;;;22.57;56.19;97550.88;5033504;28;20205;-70
2022/06/19 01:22:42;;;;;;;17.30;5.53;;;;;;;22.50;56.33;97536.97;5033477;28;20210;-70
2022/06/19 01:25:13;;;;;;;13.40;5.15;;;;;;;22.39;56.66;97541.00;5033458;28;20194;-69
2022/06/19 01:30:32;;;;;;;12.55;4.75;;;;;;;22.36;56.83;97531.56;5033479;28;20205;-70
2022/06/19 01:33:00;;;;;;;11.48;5.20;;;;;;;22.26;57.66;97526.41;5015770;28;20745;-70
2022/06/19 01:35:29;;;;;;;17.42;4.82;;;;;;;22.28;58.24;97526.06;5033348;28;20209;-69
2022/06/19 01:37:58;;;;;;;16.15;4.90;;;;;;;22.29;58.19;97522.28;5033312;28;20233;-69
2022/06/19 01:40:32;;;;;;;14.50;5.13;;;;;;;22.25;58.49;97510.44;5033069;28;20201;-70
2022/06/19 01:42:59;;;;;;;11.10;4.80;;;;;;;22.27;58.86;97508.22;5015928;28;20193;-69
2022/06/19 01:45:25;;;;;;;11.75;4.97;;;;;;;22.29;58.27;97503.31;5033268;28;20301;-70
2022/06/19 01:47:53;;;;;;;11.60;5.32;;;;;;;22.25;58.90;97505.81;5033100;28;20312;-70
2022/06/19 01:50:23;;;;;;;15.88;5.00;;;;;;;22.25;58.70;97505.03;5015287;28;20712;-70
2022/06/19 01:52:54;;;;;;;11.95;5.43;;;;;;;22.16;58.55;97501.47;5032925;28;20652;-69
2022/06/19 01:55:21;;;;;;;24.42;6.03;;;;;;;22.12;57.89;97495.84;5032949;28;20748;-70
2022/06/19 01:57:52;;;;;;;13.00;5.23;;;;;;;22.14;58.38;97504.47;5033763;28;20237;-70
2022/06/19 02:00:23;;;;;;;15.65;5.80;;;;;;;22.06;58.75;97499.00;5032852;28;20191;-70
2022/06/19 02:03:00;;;;;;;15.98;5.53;;;;;;;22.08;58.73;97500.28;5032716;28;20206;-70
2022/06/19 02:05:26;;;;;;;14.40;5.20;;;;;;;21.98;59.23;97497.00;5032840;28;20633;-70
2022/06/19 02:07:53;;;;;;;14.10;5.50;;;;;;;21.96;59.74;97510.03;5033020;28;20336;-69
2022/06/19 02:10:21;;;;;;;14.20;6.13;;;;;;;21.91;59.90;97507.44;5032593;28;20565;-70
2022/06/19 02:12:47;;;;;;;12.03;5.30;;;;;;;21.80;60.54;97498.72;5033057;28;20292;-69
2022/06/19 02:15:14;;;;;;;12.07;5.50;;;;;;;21.73;60.87;97503.78;5032995;28;20284;-69
2022/06/19 02:17:44;;;;;;;15.00;5.20;;;;;;;21.81;60.66;97494.13;5032358;28;20297;-70
2022/06/19 02:20:12;;;;;;;13.63;5.37;;;;;;;21.78;60.54;97497.44;5032653;28;20198;-70
2022/06/19 02:22:39;;;;;;;16.13;5.40;;;;;;;21.71;61.39;97503.25;5032914;28;20225;-69
2022/06/19 02:25:06;;;;;;;10.00;5.17;;;;;;;21.71;61.30;97497.84;5034787;28;20206;-69
2022/06/19 02:27:35;;;;;;;12.97;5.17;;;;;;;21.68;62.20;97503.84;5036423;28;20301;-70
2022/06/19 02:30:05;;;;;;;14.17;4.87;;;;;;;21.65;60.87;97509.03;5018727;28;20313;-69
2022/06/19 02:32:38;;;;;;;11.03;4.20;;;;;;;21.83;57.92;97517.06;5035852;28;20228;-69
2022/06/19 02:35:05;;;;;;;10.40;4.03;;;;;;;21.84;57.59;97509.78;5036396;28;20190;-69
2022/06/19 02:37:38;;;;;;;10.13;4.07;;;;;;;21.87;57.17;97503.72;5036195;28;20210;-70
2022/06/19 02:40:27;;;;;;;11.07;3.87;;;;;;;21.78;58.33;97497.44;5035913;28;20713;-70
2022/06/19 02:42:53;;;;;;;9.57;4.40;;;;;;;21.72;58.23;97502.16;5036718;28;20301;-69
2022/06/19 02:45:26;;;;;;;14.17;4.37;;;;;;;21.65;58.02;97495.50;5035834;28;20256;-70
2022/06/19 02:47:55;;;;;;;13.80;4.70;;;;;;;21.65;57.84;97506.34;5036066;28;20316;-70
2022/06/19 02:50:31;;;;;;;9.67;3.70;;;;;;;21.55;57.40;97503.84;5035661;28;20317;-70
2022/06/19 02:52:57;;;;;;;12.07;3.87;;;;;;;21.61;57.80;97502.66;5035693;28;20221;-70
2022/06/19 02:55:24;;;;;;;7.60;3.57;;;;;;;21.51;58.86;97502.84;5035648;28;20210;-70
2022/06/19 02:57:51;;;;;;;6.73;3.73;;;;;;;21.42;58.83;97502.75;5035821;28;20232;-70
2022/06/19 03:00:25;;;;;;;8.60;3.90;;;;;;;21.47;58.60;97496.47;5035858;28;20207;-70
2022/06/19 03:02:56;;;;;;;11.77;3.53;;;;;;;21.48;58.07;97501.53;5035482;28;20285;-69
2022/06/19 03:05:27;;;;;;;9.80;3.83;;;;;;;21.45;58.46;97493.25;5035671;28;20273;-69
2022/06/19 03:07:54;;;;;;;10.80;3.80;;;;;;;21.41;58.78;97497.66;5018884;28;20230;-70
2022/06/19 03:10:21;;;;;;;7.90;3.53;;;;;;;21.37;58.73;97492.06;5035532;28;20233;-70
2022/06/19 03:12:47;;;;;;;12.77;4.40;;;;;;;21.37;59.58;97483.13;5035531;28;20234;-70
2022/06/19 03:15:16;;;;;;;9.67;4.07;;;;;;;21.28;59.81;97490.34;5035177;28;20651;-70
2022/06/19 03:17:43;;;;;;;14.00;4.20;;;;;;;21.19;60.31;97489.44;5035458;28;20206;-70
2022/06/19 03:20:15;;;;;;;11.67;4.43;;;;;;;21.11;61.13;97482.03;5035047;28;20233;-70
2022/06/19 03:22:41;;;;;;;9.50;4.37;;;;;;;21.13;61.75;97474.44;5035172;28;20194;-70
2022/06/19 03:25:08;;;;;;;13.20;4.47;;;;;;;21.14;62.05;97474.13;5035095;28;20699;-70
2022/06/19 03:27:34;;;;;;;11.63;4.73;;;;;;;21.04;62.45;97476.22;5035023;28;20241;-70
2022/06/19 03:30:01;;;;;;;13.60;5.20;;;;;;;21.10;62.64;97467.72;5034884;28;20233;-70
2022/06/19 03:32:27;;;;;;;18.13;4.73;;;;;;;21.08;63.45;97464.53;5035176;28;20216;-69
2022/06/19 03:34:54;;;;;;;12.13;5.03;;;;;;;21.07;63.76;97476.41;5034734;28;20209;-69
2022/06/19 03:37:20;;;;;;;13.07;4.80;;;;;;;21.04;63.91;97471.63;5035175;28;20292;-69
2022/06/19 03:39:46;;;;;;;13.67;4.77;;;;;;;21.14;63.78;97471.44;5034746;28;20592;-70
2022/06/19 03:42:15;;;;;;;14.03;4.87;;;;;;;21.12;64.02;97470.91;5035031;28;20241;-70
2022/06/19 03:44:42;;;;;;;12.83;5.03;;;;;;;21.15;64.43;97477.63;5034753;28;20210;-69
2022/06/19 03:47:09;;;;;;;9.77;4.50;;;;;;;21.19;64.15;97470.50;5034615;28;20206;-69
2022/06/19 03:49:35;;;;;;;11.60;4.40;;;;;;;21.23;62.85;97469.63;5034450;28;20242;-69
2022/06/19 03:52:02;;;;;;;10.87;4.67;;;;;;;21.21;62.33;97461.00;5034840;28;20229;-70
2022/06/19 03:54:28;;;;;;;15.90;5.17;;;;;;;21.19;62.83;97460.50;5034533;28;20212;-69
2022/06/19 03:56:54;;;;;;;10.90;4.50;;;;;;;21.24;63.29;97459.59;5034528;28;20293;-69
2022/06/19 03:59:21;;;;;;;13.13;4.50;;;;;;;21.27;61.20;97462.50;5034705;28;20324;-70
2022/06/19 04:01:47;;;;;;;14.37;4.70;;;;;;;21.32;61.41;97467.81;5034443;28;20563;-69
2022/06/19 04:04:14;;;;;;;14.37;4.20;;;;;;;21.35;61.23;97467.19;5034386;28;20234;-70
2022/06/19 04:06:42;;;;;;;11.73;4.00;;;;;;;21.38;60.61;97471.22;5034600;28;20213;-69
2022/06/19 04:09:15;;;;;;;13.33;4.43;;;;;;;21.35;61.28;97463.72;5034471;28;20228;-70
2022/06/19 04:11:42;;;;;;;7.03;3.57;;;;;;;21.36;62.23;97466.13;5034471;28;20210;-70
2022/06/19 04:14:12;;;;;;;9.23;4.60;;;;;;;21.44;61.04;97464.59;5034137;28;20206;-70
2022/06/19 04:16:40;;;;;;;9.43;3.77;;;;;;;21.44;61.76;97459.97;5034400;28;20197;-69
2022/06/19 04:19:08;;;;;;;8.23;4.30;;;;;;;21.46;61.89;97473.19;5033876;28;20731;-69
2022/06/19 04:21:40;;;;;;;9.63;3.93;;;;;;;21.65;58.14;97463.88;5033947;28;20202;-70
2022/06/19 04:24:07;;;;;;;10.17;3.87;;;;;;;21.69;60.31;97467.59;5034282;28;20273;-69
2022/06/19 04:26:36;;;;;;;12.33;4.30;;;;;;;21.66;60.31;97467.38;5034281;28;20202;-69
2022/06/19 04:29:04;;;;;;;8.50;3.67;;;;;;;21.75;59.48;97471.00;5034051;28;20226;-69
2022/06/19 04:31:31;;;;;;;8.77;3.63;;;;;;;21.82;57.60;97465.94;5033812;28;20317;-69
2022/06/19 04:33:57;;;;;;;14.57;3.70;;;;;;;21.88;59.19;97470.16;5033881;28;20686;-70
2022/06/19 04:36:26;;;;;;;13.83;4.17;;;;;;;21.88;58.91;97476.38;5034039;28;20202;-69
2022/06/19 04:38:54;;;;;;;10.40;4.00;;;;;;;21.94;58.91;97485.19;5034395;28;20276;-69
2022/06/19 04:41:27;;;;;;;13.97;3.97;;;;;;;21.96;59.18;97480.25;5033656;28;20208;-70
2022/06/19 04:43:54;;;;;;;11.33;4.23;;;;;;;22.12;56.73;97471.47;5033660;28;20206;-70
2022/06/19 04:46:21;;;;;;;13.70;4.03;;;;;;;22.23;56.41;97482.88;5033822;28;20288;-69
2022/06/19 04:48:49;;;;;;;10.30;3.70;;;;;;;22.25;58.45;97477.97;5033156;28;20328;-70
2022/06/19 04:51:16;;;;;;;11.95;3.42;;;;;;;22.28;57.50;97477.31;5033757;28;20316;-69
2022/06/19 04:53:43;;;;;;;16.50;3.93;;;;;;;22.42;55.18;97469.94;5033693;28;20234;-70
2022/06/19 04:56:12;;;;;;;11.93;3.97;;;;;;;22.53;54.60;97474.84;5033819;28;20217;-69
2022/06/19 04:58:39;;;;;;;10.95;3.28;;;;;;;22.59;54.86;97475.50;5033387;28;20613;-70
2022/06/19 05:01:20;;;;;;;9.38;3.67;;;;;;;22.61;55.06;97476.00;5033742;28;20202;-70
2022/06/19 05:03:46;;;;;;;7.13;3.20;;;;;;;22.71;53.86;97470.31;5033743;28;20222;-70
2022/06/19 05:06:12;;;;;;;11.43;3.88;;;;;;;22.80;54.73;97463.81;5033520;28;20210;-70
2022/06/19 05:08:39;;;;;;;12.48;3.72;;;;;;;23.11;52.92;97469.25;5033950;28;20236;-70
2022/06/19 05:11:05;;;;;;;10.38;3.80;;;;;;;23.38;52.42;97469.06;5033504;28;20312;-70
2022/06/19 05:13:32;;;;;;;14.15;3.97;;;;;;;23.45;52.01;97467.47;5033477;28;20298;-70
2022/06/19 05:16:12;;;;;;;9.90;3.88;;;;;;;23.61;52.35;97475.97;5033153;28;20563;-70
2022/06/19 05:18:38;;;;;;;13.85;3.75;;;;;;;23.85;52.99;97477.16;5033416;28;20312;-70
2022/06/19 05:21:06;;;;;;;10.45;3.67;;;;;;;24.33;51.10;97480.53;5033442;28;20297;-70
2022/06/19 05:23:34;;;;;;;9.23;3.88;;;;;;;24.77;50.29;97482.09;5033472;28;20205;-70
2022/06/19 05:26:04;;;;;;;13.90;4.05;;;;;;;25.10;48.90;97481.19;5033434;28;20209;-70
2022/06/19 05:28:31;;;;;;;15.80;4.43;;;;;;;25.01;48.82;97477.69;5033330;28;20316;-70
2022/06/19 05:30:59;;;;;;;12.30;3.78;;;;;;;24.77;48.80;97472.03;5033267;28;20248;-70
2022/06/19 05:33:27;;;;;;;12.32;3.92;;;;;;;24.74;50.03;97471.88;5033356;28;20296;-70
2022/06/19 05:35:54;;;;;;;9.55;3.85;;;;;;;24.60;50.30;97477.50;5033342;28;20206;-70
2022/06/19 05:38:21;;;;;;;12.23;3.88;;;;;;;24.64;50.77;97467.56;5033128;28;20264;-69
2022/06/19 05:40:52;;;;;;;11.90;4.07;;;;;;;24.59;50.17;97475.91;5032940;28;20293;-70
2022/06/19 05:43:20;;;;;;;11.65;4.03;;;;;;;24.63;49.95;97476.03;5033249;28;20206;-70
2022/06/19 05:45:52;;;;;;;14.25;4.50;;;;;;;24.59;50.18;97475.91;5032920;28;20578;-70
2022/06/19 05:48:18;;;;;;;14.00;4.32;;;;;;;24.74;49.47;97467.22;5032680;28;20713;-70
2022/06/19 05:50:45;;;;;;;11.15;3.80;;;;;;;24.79;49.26;97469.00;5033112;28;20305;-70
2022/06/19 05:53:12;;;;;;;11.10;4.00;;;;;;;24.79;49.51;97467.06;5032843;28;20209;-70
2022/06/19 05:55:38;;;;;;;12.35;3.67;;;;;;;24.87;49.53;97476.34;5033138;28;20293;-70
2022/06/19 05:58:05;;;;;;;11.68;3.72;;;;;;;24.95;49.04;97475.47;5032915;28;20233;-69
2022/06/19 06:00:31;;;;;;;10.65;3.85;;;;;;;25.14;49.61;97468.53;5035827;28;20248;-69
2022/06/19 06:02:57;;;;;;;15.85;4.47;;;;;;;25.20;48.21;97472.66;5036885;28;20212;-69
2022/06/19 06:05:24;;;;;;;13.07;4.15;;;;;;;25.29;47.21;97462.56;5036846;28;20202;-70
2022/06/19 06:07:50;;;;;;;14.80;4.32;;;;;;;25.41;47.15;97464.59;5036370;28;20730;-69
2022/06/19 06:10:17;;;;;;;11.70;4.28;;;;;;;25.44;46.79;97466.66;5036740;28;20292;-69
2022/06/19 06:12:43;;;;;;;16.63;4.18;;;;;;;25.51;46.40;97466.97;5036777;28;20217;-70
2022/06/19 06:15:10;;;;;;;21.05;4.07;;;;;;;25.63;46.17;97467.03;5036424;28;20542;-70
2022/06/19 06:17:37;;;;;;;17.13;4.32;;;;;;;25.75;46.17;97475.31;5036586;28;20213;-70
2022/06/19 06:20:04;;;;;;;12.50;3.97;;;;;;;25.83;47.31;97463.56;5036440;28;20216;-69
2022/06/19 06:22:30;;;;;;;16.30;4.05;;;;;;;25.69;46.75;97468.47;5036515;28;20206;-69
2022/06/19 06:24:56;;;;;;;11.65;4.10;;;;;;;25.80;47.50;97473.19;5036511;28;20212;-69
2022/06/19 06:27:23;;;;;;;16.35;3.78;;;;;;;25.79;46.66;97473.50;5036450;28;20206;-70
2022/06/19 06:29:50;;;;;;;9.77;3.88;;;;;;;25.84;47.59;97467.88;5036390;28;20268;-69
2022/06/19 06:32:16;;;;;;;12.52;3.97;;;;;;;25.99;46.82;97464.56;5036008;28;20232;-69
2022/06/19 06:34:43;;;;;;;13.10;4.22;;;;;;;26.11;46.59;97467.38;5036278;28;20212;-70
2022/06/19 06:37:09;;;;;;;14.07;4.20;;;;;;;26.23;45.73;97468.22;5035885;28;20238;-70
2022/06/19 06:39:36;;;;;;;14.20;3.88;;;;;;;26.20;45.14;97473.56;5036068;28;20257;-70
2022/06/19 06:42:02;;;;;;;17.75;4.30;;;;;;;26.25;45.46;97470.63;5036145;28;20205;-70
2022/06/19 06:44:28;;;;;;;14.43;4.40;;;;;;;26.36;45.09;97471.81;5035742;28;20768;-70
2022/06/19 06:46:55;;;;;;;14.40;4.28;;;;;;;26.41;44.99;97479.81;5036058;28;20293;-70
2022/06/19 06:49:21;;;;;;;14.77;3.60;;;;;;;26.50;45.08;97475.84;5035660;28;20320;-70
2022/06/19 06:51:48;;;;;;;15.38;4.30;;;;;;;26.53;45.57;97471.66;5035423;28;20236;-70
2022/06/19 06:54:14;;;;;;;10.32;4.35;;;;;;;26.48;46.20;97474.59;5035829;28;20284;-70
2022/06/19 06:56:40;;;;;;;17.08;4.30;;;;;;;26.36;46.70;97471.81;5035563;28;20209;-69
2022/06/19 06:59:07;;;;;;;12.00;4.18;;;;;;;26.37;46.78;97471.47;5035765;28;20229;-70
2022/06/19 07:01:33;;;;;;;15.45;4.43;;;;;;;26.42;46.75;97470.47;5035577;28;20285;-70
2022/06/19 07:04:00;;;;;;;10.75;4.10;;;;;;;26.60;47.05;97463.78;5035322;28;20753;-70
2022/06/19 07:06:28;;;;;;;12.20;4.43;;;;;;;26.75;46.66;97463.94;5035590;28;20206;-70
2022/06/19 07:08:55;;;;;;;14.25;4.47;;;;;;;26.73;46.90;97471.63;5035603;28;20230;-70
2022/06/19 07:11:24;;;;;;;16.23;4.72;;;;;;;26.63;47.21;97463.06;5034892;28;20610;-70
2022/06/19 07:13:52;;;;;;;14.32;4.30;;;;;;;26.66;47.53;97462.41;5035565;28;20316;-69
2022/06/19 07:16:18;;;;;;;14.82;4.78;;;;;;;26.74;47.92;97465.03;5035584;28;20206;-70
2022/06/19 07:18:45;;;;;;;13.20;4.15;;;;;;;26.68;47.61;97471.84;5035445;28;20313;-69
2022/06/19 07:21:12;;;;;;;11.00;4.18;;;;;;;26.73;47.67;97463.44;5035433;28;20241;-70
2022/06/19 07:23:42;;;;;;;12.50;4.00;;;;;;;26.68;48.10;97468.34;5035377;28;20293;-69
2022/06/19 07:26:10;;;;;;;11.80;4.22;;;;;;;26.58;47.82;97469.56;5034893;28;20213;-69
2022/06/19 07:28:37;;;;;;;13.25;3.85;;;;;;;26.55;48.08;97472.13;5035204;28;20229;-69
2022/06/19 07:31:03;;;;;;;11.40;4.60;;;;;;;26.49;49.28;97466.09;5034796;28;20228;-70
2022/06/19 07:33:30;;;;;;;13.88;4.22;;;;;;;26.40;49.79;97464.56;5035247;28;20208;-70
2022/06/19 07:35:56;;;;;;;13.63;4.13;;;;;;;26.58;48.97;97461.38;5034751;28;20669;-69
2022/06/19 07:38:23;;;;;;;13.07;4.80;;;;;;;26.78;48.91;97459.72;5034638;28;20232;-70
2022/06/19 07:40:49;;;;;;;10.30;4.13;;;;;;;27.14;48.44;97466.03;5034729;28;20206;-70
2022/06/19 07:43:15;;;;;;;9.68;4.40;;;;;;;27.39;47.25;97460.66;5035499;28;20206;-69
2022/06/19 07:45:42;;;;;;;10.35;4.10;;;;;;;27.64;47.86;97460.28;5034939;28;20220;-70
2022/06/19 07:51:00;;;;;;;13.23;4.50;;;;;;;27.91;46.43;97461.53;4996308;28;20278;-70
2022/06/19 07:53:26;;;;;;;13.93;4.35;;;;;;;27.95;47.08;97455.03;5035367;28;20202;-70
2022/06/19 07:55:53;;;;;;;19.48;4.80;;;;;;;28.08;46.28;97453.84;5034648;28;20292;-70
2022/06/19 07:58:19;;;;;;;11.32;4.70;;;;;;;28.28;46.38;97452.88;5034470;28;20314;-70
2022/06/19 08:00:45;;;;;;;13.88;4.53;;;;;;;28.39;45.95;97451.22;5034592;28;20240;-70
2022/06/19 08:03:12;;;;;;;11.80;4.35;;;;;;;28.57;46.92;97449.03;5034279;28;20292;-70
2022/06/19 08:05:40;;;;;;;13.68;4.25;;;;;;;28.64;45.55;97455.50;5034347;28;20209;-70
2022/06/19 08:08:10;;;;;;;17.77;4.70;;;;;;;28.74;44.42;97454.16;5034012;28;20570;-70
2022/06/19 08:10:39;;;;;;;12.65;4.10;;;;;;;28.74;44.95;97452.25;5034554;28;20208;-70
2022/06/19 08:13:07;;;;;;;15.15;4.40;;;;;;;28.87;44.83;97453.75;5034328;28;20301;-70
2022/06/19 08:15:34;;;;;;;11.57;4.45;;;;;;;28.97;43.85;97455.97;5034433;28;20213;-70
2022/06/19 08:18:03;;;;;;;14.48;5.25;;;;;;;28.96;44.30;97451.66;5034284;28;20229;-70
2022/06/19 08:20:30;;;;;;;14.80;5.18;;;;;;;29.08;44.58;97453.56;5034275;28;20210;-70
2022/06/19 08:22:57;;;;;;;9.65;4.90;;;;;;;29.06;44.69;97447.63;5032969;28;20576;-70
2022/06/19 08:25:25;;;;;;;14.57;4.90;;;;;;;29.23;43.27;97450.81;5034239;28;20206;-70
2022/06/19 08:27:53;;;;;;;13.30;4.80;;;;;;;29.58;44.19;97450.91;5034082;28;20416;-69
2022/06/19 08:30:42;;;;;;;16.40;5.40;;;;;;;29.60;43.29;97449.41;5034174;28;20233;-70
2022/06/19 08:33:10;;;;;;;10.85;4.78;;;;;;;29.83;42.56;97439.34;5033682;28;20551;-70
2022/06/19 08:35:42;;;;;;;12.70;5.53;;;;;;;30.03;41.86;97440.94;5033954;28;20301;-70
2022/06/19 08:38:16;;;;;;;12.27;4.93;;;;;;;30.28;43.18;97439.56;5033986;28;20596;-69
2022/06/19 08:41:02;;;;;;;18.77;5.13;;;;;;;30.60;42.13;97437.44;5033622;28;20637;-69
2022/06/19 08:44:00;;;;;;;15.75;5.72;;;;;;;30.63;42.34;97434.78;5015982;28;20201;-70
2022/06/19 08:46:45;;;;;;;9.68;5.25;;;;;;;30.59;41.58;97442.16;5016373;28;20186;-69
2022/06/19 08:49:41;;;;;;;10.13;5.93;;;;;;;30.48;42.34;97441.13;5033342;28;20237;-70
2022/06/19 08:52:16;;;;;;;17.95;5.63;;;;;;;30.63;41.95;97437.53;5033639;28;20214;-70
2022/06/19 08:55:00;;;;;;;11.88;5.50;;;;;;;30.59;40.83;97441.34;5033698;28;20190;-70
2022/06/19 08:57:27;;;;;;;12.55;5.85;;;;;;;30.87;40.84;97437.22;5033698;28;20194;-70
2022/06/19 09:00:27;;;;;;;14.45;5.57;;;;;;;30.92;40.49;97428.69;5033519;28;20236;-70
2022/06/19 09:05:36;;;;;;;11.02;5.57;;;;;;;31.52;35.04;97435.97;5033341;28;20193;-69
2022/06/19 09:06:29;;;;;;;11.10;5.43;;;;;;;31.82;28.31;97442.38;5010176;28;20213;-70
2022/06/19 09:09:01;;;;;;;13.30;6.00;;;;;;;31.95;27.94;97448.44;5033452;28;20221;-70
2022/06/19 09:11:47;;;;;;;13.18;5.47;;;;;;;32.03;27.66;97436.38;5034278;28;20210;-70
2022/06/19 09:14:51;;;;;;;13.13;5.90;;;;;;;32.22;26.42;97437.03;5015966;28;20193;-70
2022/06/19 09:17:28;;;;;;;10.93;5.18;;;;;;;32.34;25.98;97439.53;5015929;28;20186;-70
2022/06/19 09:20:24;;;;;;;11.18;5.20;;;;;;;32.41;26.40;97439.63;5033424;28;20288;-70
2022/06/19 09:22:53;;;;;;;9.20;5.15;;;;;;;32.52;26.71;97437.03;5015702;28;20240;-70
2022/06/19 09:25:41;;;;;;;7.70;4.70;;;;;;;32.50;26.34;97431.88;5033148;28;20210;-70
2022/06/19 09:28:19;;;;;;;9.45;4.80;;;;;;;32.66;25.71;97440.69;5033299;28;20257;-70
2022/06/19 09:31:15;;;;;;;12.75;5.13;;;;;;;32.86;25.57;97439.38;5033161;28;20190;-70
2022/06/19 09:33:48;;;;;;;8.75;4.53;;;;;;;32.80;25.10;97446.41;5032050;28;20308;-70
2022/06/19 09:36:29;;;;;;;8.50;4.78;;;;;;;32.92;25.60;97437.09;5037233;28;20285;-70
2022/06/19 09:39:03;;;;;;;8.90;4.90;;;;;;;33.04;26.13;97434.84;5037096;28;20283;-70
2022/06/19 09:41:43;;;;;;;9.25;4.82;;;;;;;33.20;25.38;97434.59;5037179;28;20196;-69
2022/06/19 09:44:28;;;;;;;15.00;5.05;;;;;;;33.41;26.01;97427.31;5036632;28;20256;-70
2022/06/19 09:47:17;;;;;;;15.07;5.05;;;;;;;33.60;25.73;97435.31;5036665;28;20618;-70
2022/06/19 09:50:09;;;;;;;10.75;5.65;;;;;;;33.33;25.09;97436.69;5036489;28;20607;-70
2022/06/19 09:52:49;;;;;;;12.40;5.57;;;;;;;33.25;25.07;97421.28;5036659;28;20214;-70
2022/06/19 09:55:31;;;;;;;13.93;5.20;;;;;;;33.30;25.13;97414.63;5036566;28;20198;-70
2022/06/19 09:58:15;;;;;;;12.20;5.43;;;;;;;33.62;26.17;97410.13;5020519;28;20700;-70
2022/06/19 10:00:46;;;;;;;12.45;5.20;;;;;;;33.86;25.19;97412.28;5036523;28;20190;-70
2022/06/19 10:03:26;;;;;;;13.20;5.47;;;;;;;33.67;24.22;97405.06;5036432;28;20226;-70
2022/06/19 10:06:04;;;;;;;11.50;5.28;;;;;;;33.64;24.51;97418.81;5037217;28;20233;-70
2022/06/19 10:08:49;;;;;;;12.10;5.57;;;;;;;33.59;24.75;97422.72;5018750;28;20807;-70
2022/06/19 10:11:19;;;;;;;12.05;5.00;;;;;;;33.98;26.01;97416.66;5036329;28;20556;-70
2022/06/19 10:14:01;;;;;;;15.07;5.43;;;;;;;33.89;22.83;97419.00;5036740;28;20273;-70
2022/06/19 10:16:45;;;;;;;10.38;4.93;;;;;;;33.95;23.98;97409.19;5036573;28;20212;-70
2022/06/19 10:19:17;;;;;;;10.88;5.07;;;;;;;34.01;23.56;97415.91;5036339;28;20252;-70
2022/06/19 10:22:26;;;;;;;12.25;5.28;;;;;;;34.02;23.04;97409.22;5036290;28;20248;-70
2022/06/19 10:25:31;;;;;;;10.52;5.25;;;;;;;34.11;22.78;97415.97;5036311;28;20198;-70
2022/06/19 10:28:06;;;;;;;10.43;4.82;;;;;;;33.95;23.50;97412.72;5035606;28;20222;-70
2022/06/19 10:30:48;;;;;;;10.82;5.20;;;;;;;34.09;22.97;97410.03;5036144;28;20209;-70
2022/06/19 10:33:42;;;;;;;12.68;5.47;;;;;;;34.22;22.38;97411.28;5036654;28;20210;-70
2022/06/19 10:36:16;;;;;;;11.80;4.78;;;;;;;34.22;22.37;97408.50;5036102;28;20212;-70
2022/06/19 10:39:10;;;;;;;14.18;5.18;;;;;;;34.26;22.37;97405.78;5036308;28;20229;-70
2022/06/19 10:42:01;;;;;;;11.95;5.13;;;;;;;34.42;22.75;97396.03;5019804;28;20186;-70
2022/06/19 10:44:39;;;;;;;14.90;5.38;;;;;;;34.55;22.68;97405.53;5035588;28;20285;-70
2022/06/19 10:47:15;;;;;;;14.68;5.55;;;;;;;34.23;22.53;97409.31;5017984;28;20217;-70
2022/06/19 10:50:18;;;;;;;11.48;5.80;;;;;;;34.16;22.49;97410.06;5035678;28;20316;-70
2022/06/19 10:52:54;;;;;;;13.27;5.13;;;;;;;34.02;22.92;97401.72;5035585;28;20599;-70
2022/06/19 10:55:42;;;;;;;12.90;5.75;;;;;;;34.16;23.69;97403.75;5035527;28;20562;-70
2022/06/19 10:58:24;;;;;;;11.77;5.20;;;;;;;34.26;23.40;97409.31;5035702;28;20226;-70
2022/06/19 11:00:57;;;;;;;12.70;5.63;;;;;;;34.02;22.52;97398.19;5035492;28;20304;-70
2022/06/19 11:07:10;;;;;;;12.43;5.30;;;;;;;34.06;22.74;97404.50;5035758;28;20612;-70
2022/06/19 11:09:36;;;;;;;15.65;5.97;;;;;;;34.05;22.41;97400.16;5031407;28;20231;-70
2022/06/19 11:12:08;;;;;;;13.27;5.50;;;;;;;33.96;22.51;97372.16;5035359;28;20331;-70
2022/06/19 11:14:36;;;;;;;13.70;5.72;;;;;;;34.24;22.15;97384.09;5035642;28;20337;-70
2022/06/19 11:17:28;;;;;;;12.13;5.60;;;;;;;34.13;22.58;97390.75;5035210;28;20222;-70
2022/06/19 11:19:54;;;;;;;12.27;5.40;;;;;;;33.96;22.99;97385.94;5035151;28;20633;-70
2022/06/19 11:22:34;;;;;;;10.55;5.47;;;;;;;34.44;23.23;97387.34;5035300;28;20229;-70
2022/06/19 11:25:21;;;;;;;12.52;5.40;;;;;;;34.54;23.26;97376.31;5034984;28;20672;-70
2022/06/19 11:27:55;;;;;;;8.77;5.40;;;;;;;34.52;23.03;97372.38;5034817;28;20564;-70
2022/06/19 11:30:37;;;;;;;11.40;5.50;;;;;;;34.61;23.34;97378.31;5034970;28;20277;-70
2022/06/19 11:33:09;;;;;;;18.55;5.40;;;;;;;34.55;22.23;97385.41;5035056;28;20224;-70
2022/06/19 11:35:42;;;;;;;9.45;5.35;;;;;;;34.68;22.39;97373.56;5034921;28;20200;-70
2022/06/19 11:38:09;;;;;;;9.90;5.25;;;;;;;34.62;22.26;97363.34;5034936;28;20230;-70
2022/06/19 11:40:39;;;;;;;14.90;5.93;;;;;;;34.87;21.90;97358.66;5000968;28;20673;-70
2022/06/19 11:43:23;;;;;;;11.90;5.03;;;;;;;34.70;22.57;97370.44;5034883;28;20195;-70
2022/06/19 11:46:03;;;;;;;10.00;5.13;;;;;;;34.69;22.43;97366.09;5017287;28;20197;-70
2022/06/19 11:48:30;;;;;;;13.77;4.70;;;;;;;34.67;21.43;97374.78;5034229;28;20657;-70
2022/06/19 11:50:57;;;;;;;12.32;5.68;;;;;;;34.55;21.51;97368.84;5034289;28;20201;-70
2022/06/19 11:53:28;;;;;;;12.63;5.07;;;;;;;34.71;21.92;97369.28;5034789;28;20320;-70
2022/06/19 11:56:37;;;;;;;10.25;4.93;;;;;;;34.98;21.20;97368.53;5034887;28;20186;-70